sensor_id;sensor_type;location;lat;lon;timestamp;P1;durP1;ratioP1;P2;durP2;ratioP2
76546;SDS011;65390;53.014;8.886;2023-02-28T00:01:23;14.55;;;7.15;;
76546;SDS011;65390;53.014;8.886;2023-02-28T00:03:49;15.82;;;7.38;;
76546;SDS011;65390;53.014;8.886;2023-02-28T00:06:14;15.75;;;7.35;;
76546;SDS011;65390;53.014;8.886;2023-02-28T00:08:40;12.23;;;7.28;;
76546;SDS011;65390;53.014;8.886;2023-02-28T00:11:07;16.00;;;7.60;;
76546;SDS011;65390;53.014;8.886;2023-02-28T00:13:35;18.50;;;7.13;;
76546;SDS011;65390;53.014;8.886;2023-02-28T00:16:03;14.15;;;6.70;;
76546;SDS011;65390;53.014;8.886;2023-02-28T00:18:30;13.25;;;7.05;;
76546;SDS011;65390;53.014;8.886;2023-02-28T00:20:56;12.52;;;7.85;;
76546;SDS011;65390;53.014;8.886;2023-02-28T00:23:22;14.13;;;7.07;;
76546;SDS011;65390;53.014;8.886;2023-02-28T00:25:48;12.10;;;7.63;;
76546;SDS011;65390;53.014;8.886;2023-02-28T00:28:14;17.33;;;8.05;;
76546;SDS011;65390;53.014;8.886;2023-02-28T00:30:39;15.65;;;8.02;;
76546;SDS011;65390;53.014;8.886;2023-02-28T00:33:05;13.57;;;7.28;;
76546;SDS011;65390;53.014;8.886;2023-02-28T00:35:30;14.50;;;8.32;;
76546;SDS011;65390;53.014;8.886;2023-02-28T00:37:55;20.75;;;9.93;;
76546;SDS011;65390;53.014;8.886;2023-02-28T00:40:21;12.82;;;7.65;;
76546;SDS011;65390;53.014;8.886;2023-02-28T00:42:46;18.05;;;8.38;;
76546;SDS011;65390;53.014;8.886;2023-02-28T00:45:11;15.18;;;8.93;;
76546;SDS011;65390;53.014;8.886;2023-02-28T00:47:37;12.73;;;8.07;;
76546;SDS011;65390;53.014;8.886;2023-02-28T00:50:03;15.63;;;7.88;;
76546;SDS011;65390;53.014;8.886;2023-02-28T00:52:29;19.83;;;8.45;;
76546;SDS011;65390;53.014;8.886;2023-02-28T00:54:54;18.42;;;8.23;;
76546;SDS011;65390;53.014;8.886;2023-02-28T00:57:20;14.73;;;7.78;;
76546;SDS011;65390;53.014;8.886;2023-02-28T00:59:45;13.77;;;7.88;;
76546;SDS011;65390;53.014;8.886;2023-02-28T01:02:11;14.90;;;8.50;;
76546;SDS011;65390;53.014;8.886;2023-02-28T01:04:36;14.90;;;8.13;;
76546;SDS011;65390;53.014;8.886;2023-02-28T01:07:02;15.13;;;8.52;;
76546;SDS011;65390;53.014;8.886;2023-02-28T01:09:28;21.10;;;9.50;;
76546;SDS011;65390;53.014;8.886;2023-02-28T01:11:53;22.90;;;9.90;;
76546;SDS011;65390;53.014;8.886;2023-02-28T01:14:19;24.52;;;10.15;;
76546;SDS011;65390;53.014;8.886;2023-02-28T01:16:44;18.38;;;10.50;;
76546;SDS011;65390;53.014;8.886;2023-02-28T01:19:10;16.30;;;8.77;;
76546;SDS011;65390;53.014;8.886;2023-02-28T01:21:36;18.33;;;9.30;;
76546;SDS011;65390;53.014;8.886;2023-02-28T01:24:02;17.75;;;9.05;;
76546;SDS011;65390;53.014;8.886;2023-02-28T01:26:28;23.70;;;10.55;;
76546;SDS011;65390;53.014;8.886;2023-02-28T01:28:53;21.33;;;9.57;;
76546;SDS011;65390;53.014;8.886;2023-02-28T01:31:19;17.92;;;9.40;;
76546;SDS011;65390;53.014;8.886;2023-02-28T01:33:46;16.25;;;9.40;;
76546;SDS011;65390;53.014;8.886;2023-02-28T01:36:13;14.07;;;8.95;;
76546;SDS011;65390;53.014;8.886;2023-02-28T01:38:40;19.52;;;10.02;;
76546;SDS011;65390;53.014;8.886;2023-02-28T01:41:06;20.33;;;9.25;;
76546;SDS011;65390;53.014;8.886;2023-02-28T01:43:52;18.80;;;9.35;;
76546;SDS011;65390;53.014;8.886;2023-02-28T01:46:20;17.55;;;9.50;;
76546;SDS011;65390;53.014;8.886;2023-02-28T01:48:47;17.92;;;10.20;;
76546;SDS011;65390;53.014;8.886;2023-02-28T01:51:50;16.77;;;8.63;;
76546;SDS011;65390;53.014;8.886;2023-02-28T01:54:12;15.52;;;9.25;;
76546;SDS011;65390;53.014;8.886;2023-02-28T01:56:45;16.88;;;10.48;;
76546;SDS011;65390;53.014;8.886;2023-02-28T02:02:14;18.90;;;9.60;;
76546;SDS011;65390;53.014;8.886;2023-02-28T02:04:42;17.00;;;9.68;;
76546;SDS011;65390;53.014;8.886;2023-02-28T02:07:14;16.60;;;10.75;;
76546;SDS011;65390;53.014;8.886;2023-02-28T02:09:41;15.73;;;9.60;;
76546;SDS011;65390;53.014;8.886;2023-02-28T02:12:13;21.95;;;9.75;;
76546;SDS011;65390;53.014;8.886;2023-02-28T02:14:53;16.35;;;9.77;;
76546;SDS011;65390;53.014;8.886;2023-02-28T02:17:40;19.02;;;9.48;;
76546;SDS011;65390;53.014;8.886;2023-02-28T02:28:44;22.55;;;10.55;;
76546;SDS011;65390;53.014;8.886;2023-02-28T02:37:11;17.98;;;10.07;;
76546;SDS011;65390;53.014;8.886;2023-02-28T02:39:47;20.25;;;10.30;;
76546;SDS011;65390;53.014;8.886;2023-02-28T02:42:36;18.27;;;11.50;;
76546;SDS011;65390;53.014;8.886;2023-02-28T02:45:29;16.48;;;10.43;;
76546;SDS011;65390;53.014;8.886;2023-02-28T02:48:01;21.40;;;12.20;;
76546;SDS011;65390;53.014;8.886;2023-02-28T02:50:41;24.27;;;11.23;;
76546;SDS011;65390;53.014;8.886;2023-02-28T02:53:10;17.05;;;9.35;;
76546;SDS011;65390;53.014;8.886;2023-02-28T02:55:39;13.30;;;8.68;;
76546;SDS011;65390;53.014;8.886;2023-02-28T02:58:09;17.92;;;9.10;;
76546;SDS011;65390;53.014;8.886;2023-02-28T03:00:40;14.65;;;9.50;;
76546;SDS011;65390;53.014;8.886;2023-02-28T03:03:08;13.23;;;8.70;;
76546;SDS011;65390;53.014;8.886;2023-02-28T03:05:39;18.13;;;8.88;;
76546;SDS011;65390;53.014;8.886;2023-02-28T03:08:09;13.80;;;8.90;;
76546;SDS011;65390;53.014;8.886;2023-02-28T03:10:36;17.80;;;9.32;;
76546;SDS011;65390;53.014;8.886;2023-02-28T03:15:33;20.13;;;10.85;;
76546;SDS011;65390;53.014;8.886;2023-02-28T03:18:16;16.85;;;9.25;;
76546;SDS011;65390;53.014;8.886;2023-02-28T03:20:57;16.33;;;8.95;;
76546;SDS011;65390;53.014;8.886;2023-02-28T03:23:29;20.00;;;9.68;;
76546;SDS011;65390;53.014;8.886;2023-02-28T03:26:07;18.70;;;8.85;;
76546;SDS011;65390;53.014;8.886;2023-02-28T03:31:19;25.75;;;9.40;;
76546;SDS011;65390;53.014;8.886;2023-02-28T03:36:29;16.65;;;9.85;;
76546;SDS011;65390;53.014;8.886;2023-02-28T03:38:59;16.55;;;8.55;;
76546;SDS011;65390;53.014;8.886;2023-02-28T03:41:38;16.45;;;8.93;;
76546;SDS011;65390;53.014;8.886;2023-02-28T03:44:09;16.13;;;8.75;;
76546;SDS011;65390;53.014;8.886;2023-02-28T03:46:41;17.02;;;9.38;;
76546;SDS011;65390;53.014;8.886;2023-02-28T03:49:22;16.50;;;9.45;;
76546;SDS011;65390;53.014;8.886;2023-02-28T03:51:52;16.63;;;9.57;;
76546;SDS011;65390;53.014;8.886;2023-02-28T03:54:25;16.88;;;9.75;;
76546;SDS011;65390;53.014;8.886;2023-02-28T04:00:46;13.20;;;8.20;;
76546;SDS011;65390;53.014;8.886;2023-02-28T04:03:08;19.52;;;9.32;;
76546;SDS011;65390;53.014;8.886;2023-02-28T04:05:33;14.15;;;8.65;;
76546;SDS011;65390;53.014;8.886;2023-02-28T04:08:16;16.48;;;7.97;;
76546;SDS011;65390;53.014;8.886;2023-02-28T04:10:42;14.75;;;8.65;;
76546;SDS011;65390;53.014;8.886;2023-02-28T04:13:12;17.02;;;8.48;;
76546;SDS011;65390;53.014;8.886;2023-02-28T04:15:37;15.57;;;8.75;;
76546;SDS011;65390;53.014;8.886;2023-02-28T04:18:03;17.38;;;8.15;;
76546;SDS011;65390;53.014;8.886;2023-02-28T04:20:28;14.48;;;8.98;;
76546;SDS011;65390;53.014;8.886;2023-02-28T04:22:53;19.10;;;8.30;;
76546;SDS011;65390;53.014;8.886;2023-02-28T04:25:19;18.13;;;9.07;;
76546;SDS011;65390;53.014;8.886;2023-02-28T04:27:44;15.10;;;8.27;;
76546;SDS011;65390;53.014;8.886;2023-02-28T04:30:10;13.10;;;8.35;;
76546;SDS011;65390;53.014;8.886;2023-02-28T04:32:36;14.07;;;8.18;;
76546;SDS011;65390;53.014;8.886;2023-02-28T04:35:01;15.05;;;7.47;;
76546;SDS011;65390;53.014;8.886;2023-02-28T04:37:27;13.80;;;7.88;;
76546;SDS011;65390;53.014;8.886;2023-02-28T04:39:53;14.75;;;7.72;;
76546;SDS011;65390;53.014;8.886;2023-02-28T04:42:19;13.65;;;7.47;;
76546;SDS011;65390;53.014;8.886;2023-02-28T04:44:45;23.05;;;7.82;;
76546;SDS011;65390;53.014;8.886;2023-02-28T04:47:10;12.52;;;8.27;;
76546;SDS011;65390;53.014;8.886;2023-02-28T04:49:36;14.43;;;7.70;;
76546;SDS011;65390;53.014;8.886;2023-02-28T04:52:01;14.82;;;6.82;;
76546;SDS011;65390;53.014;8.886;2023-02-28T04:54:27;12.63;;;8.15;;
76546;SDS011;65390;53.014;8.886;2023-02-28T04:56:53;16.08;;;7.28;;
76546;SDS011;65390;53.014;8.886;2023-02-28T04:59:19;11.40;;;6.80;;
76546;SDS011;65390;53.014;8.886;2023-02-28T05:01:46;13.23;;;6.70;;
76546;SDS011;65390;53.014;8.886;2023-02-28T05:04:13;14.48;;;7.35;;
76546;SDS011;65390;53.014;8.886;2023-02-28T05:06:38;12.88;;;7.25;;
76546;SDS011;65390;53.014;8.886;2023-02-28T05:09:04;12.35;;;7.15;;
76546;SDS011;65390;53.014;8.886;2023-02-28T05:11:30;13.55;;;7.35;;
76546;SDS011;65390;53.014;8.886;2023-02-28T05:14:04;14.38;;;7.85;;
76546;SDS011;65390;53.014;8.886;2023-02-28T05:16:34;13.57;;;6.40;;
76546;SDS011;65390;53.014;8.886;2023-02-28T05:18:59;13.07;;;7.30;;
76546;SDS011;65390;53.014;8.886;2023-02-28T05:21:29;15.95;;;7.03;;
76546;SDS011;65390;53.014;8.886;2023-02-28T05:23:56;10.23;;;6.15;;
76546;SDS011;65390;53.014;8.886;2023-02-28T05:26:23;10.88;;;6.63;;
76546;SDS011;65390;53.014;8.886;2023-02-28T05:28:48;16.02;;;6.72;;
76546;SDS011;65390;53.014;8.886;2023-02-28T05:31:14;13.43;;;6.65;;
76546;SDS011;65390;53.014;8.886;2023-02-28T05:33:40;13.07;;;6.55;;
76546;SDS011;65390;53.014;8.886;2023-02-28T05:36:05;11.32;;;6.68;;
76546;SDS011;65390;53.014;8.886;2023-02-28T05:38:31;11.05;;;6.57;;
76546;SDS011;65390;53.014;8.886;2023-02-28T05:40:57;11.90;;;6.28;;
76546;SDS011;65390;53.014;8.886;2023-02-28T05:43:22;12.90;;;7.38;;
76546;SDS011;65390;53.014;8.886;2023-02-28T05:45:48;13.80;;;6.72;;
76546;SDS011;65390;53.014;8.886;2023-02-28T05:48:13;10.18;;;6.65;;
76546;SDS011;65390;53.014;8.886;2023-02-28T05:50:39;15.75;;;6.85;;
76546;SDS011;65390;53.014;8.886;2023-02-28T05:53:04;11.65;;;6.43;;
76546;SDS011;65390;53.014;8.886;2023-02-28T05:55:30;12.02;;;6.28;;
76546;SDS011;65390;53.014;8.886;2023-02-28T05:57:55;17.98;;;7.50;;
76546;SDS011;65390;53.014;8.886;2023-02-28T06:00:21;14.40;;;7.07;;
76546;SDS011;65390;53.014;8.886;2023-02-28T06:02:47;18.67;;;6.75;;
76546;SDS011;65390;53.014;8.886;2023-02-28T06:05:13;21.77;;;7.10;;
76546;SDS011;65390;53.014;8.886;2023-02-28T06:07:40;19.70;;;8.00;;
76546;SDS011;65390;53.014;8.886;2023-02-28T06:10:06;23.83;;;8.68;;
76546;SDS011;65390;53.014;8.886;2023-02-28T06:12:31;21.23;;;8.82;;
76546;SDS011;65390;53.014;8.886;2023-02-28T06:14:57;19.83;;;8.27;;
76546;SDS011;65390;53.014;8.886;2023-02-28T06:17:22;12.98;;;6.75;;
76546;SDS011;65390;53.014;8.886;2023-02-28T06:19:47;12.50;;;7.30;;
76546;SDS011;65390;53.014;8.886;2023-02-28T06:22:13;18.25;;;9.13;;
76546;SDS011;65390;53.014;8.886;2023-02-28T06:24:38;15.07;;;7.68;;
76546;SDS011;65390;53.014;8.886;2023-02-28T06:27:04;15.05;;;7.00;;
76546;SDS011;65390;53.014;8.886;2023-02-28T06:29:30;17.63;;;7.80;;
76546;SDS011;65390;53.014;8.886;2023-02-28T06:31:57;19.63;;;7.10;;
76546;SDS011;65390;53.014;8.886;2023-02-28T06:34:25;14.88;;;7.40;;
76546;SDS011;65390;53.014;8.886;2023-02-28T06:36:51;10.18;;;6.75;;
76546;SDS011;65390;53.014;8.886;2023-02-28T06:39:17;15.30;;;7.00;;
76546;SDS011;65390;53.014;8.886;2023-02-28T06:41:43;21.00;;;7.47;;
76546;SDS011;65390;53.014;8.886;2023-02-28T06:44:14;12.75;;;7.07;;
76546;SDS011;65390;53.014;8.886;2023-02-28T06:46:42;23.92;;;7.85;;
76546;SDS011;65390;53.014;8.886;2023-02-28T06:49:08;16.60;;;7.07;;
76546;SDS011;65390;53.014;8.886;2023-02-28T06:51:35;11.13;;;6.93;;
76546;SDS011;65390;53.014;8.886;2023-02-28T06:54:20;14.50;;;6.97;;
76546;SDS011;65390;53.014;8.886;2023-02-28T06:56:48;15.55;;;6.80;;
76546;SDS011;65390;53.014;8.886;2023-02-28T06:59:13;10.25;;;6.65;;
76546;SDS011;65390;53.014;8.886;2023-02-28T07:01:39;16.98;;;8.27;;
76546;SDS011;65390;53.014;8.886;2023-02-28T07:04:05;10.43;;;7.05;;
76546;SDS011;65390;53.014;8.886;2023-02-28T07:06:31;13.02;;;7.82;;
76546;SDS011;65390;53.014;8.886;2023-02-28T07:08:57;10.57;;;6.90;;
76546;SDS011;65390;53.014;8.886;2023-02-28T07:11:24;12.48;;;7.57;;
76546;SDS011;65390;53.014;8.886;2023-02-28T07:13:51;10.75;;;6.82;;
76546;SDS011;65390;53.014;8.886;2023-02-28T07:16:17;9.50;;;7.30;;
76546;SDS011;65390;53.014;8.886;2023-02-28T07:18:42;12.95;;;7.15;;
76546;SDS011;65390;53.014;8.886;2023-02-28T07:21:09;11.95;;;7.65;;
76546;SDS011;65390;53.014;8.886;2023-02-28T07:23:35;11.23;;;6.68;;
76546;SDS011;65390;53.014;8.886;2023-02-28T07:26:03;14.10;;;7.40;;
76546;SDS011;65390;53.014;8.886;2023-02-28T07:28:29;12.55;;;7.13;;
76546;SDS011;65390;53.014;8.886;2023-02-28T07:30:54;13.57;;;6.50;;
76546;SDS011;65390;53.014;8.886;2023-02-28T07:33:19;12.20;;;8.30;;
76546;SDS011;65390;53.014;8.886;2023-02-28T07:35:45;9.98;;;6.57;;
76546;SDS011;65390;53.014;8.886;2023-02-28T07:38:10;9.70;;;7.13;;
76546;SDS011;65390;53.014;8.886;2023-02-28T07:40:37;10.52;;;6.55;;
76546;SDS011;65390;53.014;8.886;2023-02-28T07:43:03;10.25;;;6.30;;
76546;SDS011;65390;53.014;8.886;2023-02-28T07:45:28;10.75;;;5.85;;
76546;SDS011;65390;53.014;8.886;2023-02-28T07:47:54;11.25;;;5.22;;
76546;SDS011;65390;53.014;8.886;2023-02-28T07:50:20;8.88;;;5.78;;
76546;SDS011;65390;53.014;8.886;2023-02-28T07:52:46;11.57;;;6.03;;
76546;SDS011;65390;53.014;8.886;2023-02-28T07:55:12;11.52;;;5.18;;
76546;SDS011;65390;53.014;8.886;2023-02-28T07:57:38;8.68;;;5.45;;
76546;SDS011;65390;53.014;8.886;2023-02-28T08:00:05;9.25;;;4.97;;
76546;SDS011;65390;53.014;8.886;2023-02-28T08:02:34;7.85;;;5.57;;
76546;SDS011;65390;53.014;8.886;2023-02-28T08:05:00;8.60;;;5.28;;
76546;SDS011;65390;53.014;8.886;2023-02-28T08:07:26;8.70;;;5.00;;
76546;SDS011;65390;53.014;8.886;2023-02-28T08:09:51;9.20;;;5.65;;
76546;SDS011;65390;53.014;8.886;2023-02-28T08:12:16;9.70;;;5.38;;
76546;SDS011;65390;53.014;8.886;2023-02-28T08:14:42;7.45;;;5.10;;
76546;SDS011;65390;53.014;8.886;2023-02-28T08:17:07;10.48;;;5.60;;
76546;SDS011;65390;53.014;8.886;2023-02-28T08:19:34;8.18;;;5.05;;
76546;SDS011;65390;53.014;8.886;2023-02-28T08:21:59;11.20;;;5.05;;
76546;SDS011;65390;53.014;8.886;2023-02-28T08:24:25;6.97;;;5.22;;
76546;SDS011;65390;53.014;8.886;2023-02-28T08:26:50;11.70;;;5.15;;
76546;SDS011;65390;53.014;8.886;2023-02-28T08:29:15;9.30;;;5.35;;
76546;SDS011;65390;53.014;8.886;2023-02-28T08:31:41;9.35;;;5.15;;
76546;SDS011;65390;53.014;8.886;2023-02-28T08:34:08;7.68;;;5.32;;
76546;SDS011;65390;53.014;8.886;2023-02-28T08:36:35;10.70;;;5.10;;
76546;SDS011;65390;53.014;8.886;2023-02-28T08:39:01;11.15;;;5.03;;
76546;SDS011;65390;53.014;8.886;2023-02-28T08:41:26;11.93;;;5.53;;
76546;SDS011;65390;53.014;8.886;2023-02-28T08:43:51;8.52;;;5.40;;
76546;SDS011;65390;53.014;8.886;2023-02-28T08:46:18;8.23;;;4.43;;
76546;SDS011;65390;53.014;8.886;2023-02-28T08:48:44;9.75;;;4.63;;
76546;SDS011;65390;53.014;8.886;2023-02-28T08:51:11;9.00;;;4.15;;
76546;SDS011;65390;53.014;8.886;2023-02-28T08:53:39;7.82;;;4.78;;
76546;SDS011;65390;53.014;8.886;2023-02-28T08:56:09;10.30;;;3.70;;
76546;SDS011;65390;53.014;8.886;2023-02-28T08:58:36;11.32;;;5.20;;
76546;SDS011;65390;53.014;8.886;2023-02-28T09:03:57;8.13;;;4.13;;
76546;SDS011;65390;53.014;8.886;2023-02-28T09:06:24;7.70;;;4.32;;
76546;SDS011;65390;53.014;8.886;2023-02-28T09:08:51;6.07;;;3.15;;
76546;SDS011;65390;53.014;8.886;2023-02-28T09:11:17;10.02;;;4.18;;
76546;SDS011;65390;53.014;8.886;2023-02-28T09:13:44;6.90;;;4.55;;
76546;SDS011;65390;53.014;8.886;2023-02-28T09:16:11;6.65;;;3.90;;
76546;SDS011;65390;53.014;8.886;2023-02-28T09:18:38;6.18;;;3.30;;
76546;SDS011;65390;53.014;8.886;2023-02-28T09:21:04;6.55;;;2.95;;
76546;SDS011;65390;53.014;8.886;2023-02-28T09:23:31;6.45;;;2.95;;
76546;SDS011;65390;53.014;8.886;2023-02-28T09:25:56;4.90;;;3.72;;
76546;SDS011;65390;53.014;8.886;2023-02-28T09:28:22;5.80;;;3.13;;
76546;SDS011;65390;53.014;8.886;2023-02-28T09:30:48;5.85;;;3.35;;
76546;SDS011;65390;53.014;8.886;2023-02-28T09:33:15;6.30;;;3.55;;
76546;SDS011;65390;53.014;8.886;2023-02-28T09:35:42;5.32;;;3.45;;
76546;SDS011;65390;53.014;8.886;2023-02-28T09:38:07;9.48;;;3.38;;
76546;SDS011;65390;53.014;8.886;2023-02-28T09:40:37;6.22;;;2.50;;
76546;SDS011;65390;53.014;8.886;2023-02-28T09:43:14;5.15;;;3.03;;
76546;SDS011;65390;53.014;8.886;2023-02-28T09:45:41;7.93;;;2.83;;
76546;SDS011;65390;53.014;8.886;2023-02-28T09:48:14;3.25;;;2.58;;
76546;SDS011;65390;53.014;8.886;2023-02-28T09:53:30;7.30;;;2.30;;
76546;SDS011;65390;53.014;8.886;2023-02-28T09:55:59;5.25;;;1.95;;
76546;SDS011;65390;53.014;8.886;2023-02-28T09:58:44;1.85;;;0.73;;
76546;SDS011;65390;53.014;8.886;2023-02-28T10:07:17;5.03;;;1.17;;
76546;SDS011;65390;53.014;8.886;2023-02-28T10:10:22;1.70;;;0.60;;
76546;SDS011;65390;53.014;8.886;2023-02-28T10:12:52;1.88;;;1.00;;
76546;SDS011;65390;53.014;8.886;2023-02-28T10:15:21;1.25;;;0.73;;
76546;SDS011;65390;53.014;8.886;2023-02-28T10:17:48;2.00;;;0.90;;
76546;SDS011;65390;53.014;8.886;2023-02-28T10:20:20;2.67;;;0.80;;
76546;SDS011;65390;53.014;8.886;2023-02-28T10:22:53;2.33;;;1.25;;
76546;SDS011;65390;53.014;8.886;2023-02-28T10:25:32;6.72;;;1.40;;
76546;SDS011;65390;53.014;8.886;2023-02-28T10:28:05;2.85;;;1.00;;
76546;SDS011;65390;53.014;8.886;2023-02-28T10:33:05;3.78;;;1.52;;
76546;SDS011;65390;53.014;8.886;2023-02-28T10:35:38;3.90;;;1.40;;
76546;SDS011;65390;53.014;8.886;2023-02-28T10:38:05;2.80;;;1.40;;
76546;SDS011;65390;53.014;8.886;2023-02-28T10:40:40;3.30;;;1.23;;
76546;SDS011;65390;53.014;8.886;2023-02-28T10:45:37;2.28;;;1.10;;
76546;SDS011;65390;53.014;8.886;2023-02-28T10:50:42;2.28;;;1.05;;
76546;SDS011;65390;53.014;8.886;2023-02-28T10:53:14;2.25;;;1.52;;
76546;SDS011;65390;53.014;8.886;2023-02-28T10:58:28;2.35;;;1.45;;
76546;SDS011;65390;53.014;8.886;2023-02-28T11:00:55;2.90;;;1.23;;
76546;SDS011;65390;53.014;8.886;2023-02-28T11:03:40;2.72;;;1.33;;
76546;SDS011;65390;53.014;8.886;2023-02-28T11:06:07;1.98;;;1.55;;
76546;SDS011;65390;53.014;8.886;2023-02-28T11:08:52;3.70;;;1.45;;
76546;SDS011;65390;53.014;8.886;2023-02-28T11:11:20;4.47;;;1.48;;
76546;SDS011;65390;53.014;8.886;2023-02-28T11:13:48;1.63;;;1.50;;
76546;SDS011;65390;53.014;8.886;2023-02-28T11:16:17;2.65;;;1.17;;
76546;SDS011;65390;53.014;8.886;2023-02-28T11:21:19;2.88;;;1.17;;
76546;SDS011;65390;53.014;8.886;2023-02-28T11:23:50;3.60;;;1.85;;
76546;SDS011;65390;53.014;8.886;2023-02-28T11:26:34;4.55;;;1.23;;
76546;SDS011;65390;53.014;8.886;2023-02-28T11:29:10;3.42;;;2.05;;
76546;SDS011;65390;53.014;8.886;2023-02-28T11:31:41;6.15;;;1.80;;
76546;SDS011;65390;53.014;8.886;2023-02-28T11:34:23;7.07;;;1.75;;
76546;SDS011;65390;53.014;8.886;2023-02-28T11:36:51;2.13;;;1.40;;
76546;SDS011;65390;53.014;8.886;2023-02-28T11:39:18;2.17;;;1.33;;
76546;SDS011;65390;53.014;8.886;2023-02-28T11:47:29;2.92;;;1.40;;
76546;SDS011;65390;53.014;8.886;2023-02-28T11:53:00;1.67;;;1.25;;
76546;SDS011;65390;53.014;8.886;2023-02-28T11:55:27;3.00;;;1.63;;
76546;SDS011;65390;53.014;8.886;2023-02-28T11:58:17;2.42;;;1.38;;
76546;SDS011;65390;53.014;8.886;2023-02-28T12:01:03;3.85;;;1.55;;
76546;SDS011;65390;53.014;8.886;2023-02-28T12:17:35;3.28;;;1.63;;
76546;SDS011;65390;53.014;8.886;2023-02-28T12:29:28;3.50;;;1.40;;
76546;SDS011;65390;53.014;8.886;2023-02-28T12:32:05;1.85;;;1.60;;
76546;SDS011;65390;53.014;8.886;2023-02-28T12:40:53;3.10;;;1.67;;
76546;SDS011;65390;53.014;8.886;2023-02-28T12:43:22;8.05;;;2.00;;
76546;SDS011;65390;53.014;8.886;2023-02-28T12:45:56;3.05;;;1.83;;
76546;SDS011;65390;53.014;8.886;2023-02-28T12:50:58;5.20;;;2.60;;
76546;SDS011;65390;53.014;8.886;2023-02-28T13:04:04;3.72;;;1.98;;
76546;SDS011;65390;53.014;8.886;2023-02-28T13:09:33;3.53;;;1.48;;
76546;SDS011;65390;53.014;8.886;2023-02-28T13:11:58;4.90;;;1.60;;
76546;SDS011;65390;53.014;8.886;2023-02-28T13:14:37;5.45;;;1.58;;
76546;SDS011;65390;53.014;8.886;2023-02-28T13:17:09;2.50;;;1.50;;
76546;SDS011;65390;53.014;8.886;2023-02-28T13:19:56;2.33;;;1.10;;
76546;SDS011;65390;53.014;8.886;2023-02-28T13:22:40;2.70;;;1.35;;
76546;SDS011;65390;53.014;8.886;2023-02-28T13:27:50;4.78;;;1.27;;
76546;SDS011;65390;53.014;8.886;2023-02-28T13:35:44;3.33;;;1.10;;
76546;SDS011;65390;53.014;8.886;2023-02-28T13:38:45;2.85;;;1.35;;
76546;SDS011;65390;53.014;8.886;2023-02-28T13:44:07;3.05;;;1.50;;
76546;SDS011;65390;53.014;8.886;2023-02-28T13:51:54;3.47;;;1.50;;
76546;SDS011;65390;53.014;8.886;2023-02-28T13:57:33;2.28;;;1.20;;
76546;SDS011;65390;53.014;8.886;2023-02-28T14:05:17;2.58;;;0.98;;
76546;SDS011;65390;53.014;8.886;2023-02-28T14:07:50;2.97;;;1.58;;
76546;SDS011;65390;53.014;8.886;2023-02-28T14:10:22;2.03;;;1.15;;
76546;SDS011;65390;53.014;8.886;2023-02-28T14:12:57;1.85;;;1.00;;
76546;SDS011;65390;53.014;8.886;2023-02-28T14:15:44;1.67;;;0.80;;
76546;SDS011;65390;53.014;8.886;2023-02-28T14:18:27;1.58;;;0.98;;
76546;SDS011;65390;53.014;8.886;2023-02-28T14:21:43;4.95;;;1.05;;
76546;SDS011;65390;53.014;8.886;2023-02-28T14:29:34;0.98;;;0.88;;
76546;SDS011;65390;53.014;8.886;2023-02-28T14:37:36;2.85;;;1.10;;
76546;SDS011;65390;53.014;8.886;2023-02-28T14:40:04;2.13;;;1.42;;
76546;SDS011;65390;53.014;8.886;2023-02-28T14:42:45;2.97;;;1.30;;
76546;SDS011;65390;53.014;8.886;2023-02-28T14:45:19;1.95;;;1.10;;
76546;SDS011;65390;53.014;8.886;2023-02-28T14:47:46;2.88;;;1.48;;
76546;SDS011;65390;53.014;8.886;2023-02-28T14:50:17;2.58;;;1.17;;
76546;SDS011;65390;53.014;8.886;2023-02-28T14:52:51;3.13;;;1.17;;
76546;SDS011;65390;53.014;8.886;2023-02-28T14:55:28;5.05;;;1.70;;
76546;SDS011;65390;53.014;8.886;2023-02-28T15:02:52;4.10;;;1.48;;
76546;SDS011;65390;53.014;8.886;2023-02-28T15:08:09;4.05;;;1.80;;
76546;SDS011;65390;53.014;8.886;2023-02-28T15:10:35;2.35;;;1.20;;
76546;SDS011;65390;53.014;8.886;2023-02-28T15:13:02;2.10;;;1.35;;
76546;SDS011;65390;53.014;8.886;2023-02-28T15:15:51;2.13;;;1.30;;
76546;SDS011;65390;53.014;8.886;2023-02-28T15:24:05;6.75;;;1.52;;
76546;SDS011;65390;53.014;8.886;2023-02-28T15:26:40;2.25;;;1.20;;
76546;SDS011;65390;53.014;8.886;2023-02-28T15:29:11;1.70;;;1.30;;
76546;SDS011;65390;53.014;8.886;2023-02-28T15:31:44;3.33;;;1.58;;
76546;SDS011;65390;53.014;8.886;2023-02-28T15:34:21;2.15;;;1.58;;
76546;SDS011;65390;53.014;8.886;2023-02-28T15:36:52;1.48;;;1.30;;
76546;SDS011;65390;53.014;8.886;2023-02-28T15:39:22;5.65;;;1.88;;
76546;SDS011;65390;53.014;8.886;2023-02-28T15:42:10;5.15;;;1.60;;
76546;SDS011;65390;53.014;8.886;2023-02-28T15:44:45;5.65;;;1.67;;
76546;SDS011;65390;53.014;8.886;2023-02-28T15:47:24;3.53;;;1.58;;
76546;SDS011;65390;53.014;8.886;2023-02-28T15:49:52;2.97;;;1.65;;
76546;SDS011;65390;53.014;8.886;2023-02-28T15:52:26;3.30;;;1.60;;
76546;SDS011;65390;53.014;8.886;2023-02-28T15:54:58;8.68;;;1.45;;
76546;SDS011;65390;53.014;8.886;2023-02-28T15:57:25;2.15;;;1.10;;
76546;SDS011;65390;53.014;8.886;2023-02-28T15:59:57;6.97;;;1.63;;
76546;SDS011;65390;53.014;8.886;2023-02-28T16:02:35;4.43;;;1.40;;
76546;SDS011;65390;53.014;8.886;2023-02-28T16:07:36;2.97;;;1.60;;
76546;SDS011;65390;53.014;8.886;2023-02-28T16:10:07;1.75;;;1.30;;
76546;SDS011;65390;53.014;8.886;2023-02-28T16:12:34;2.78;;;1.10;;
76546;SDS011;65390;53.014;8.886;2023-02-28T16:15:02;3.08;;;1.52;;
76546;SDS011;65390;53.014;8.886;2023-02-28T16:17:35;3.85;;;1.48;;
76546;SDS011;65390;53.014;8.886;2023-02-28T16:20:23;2.88;;;1.75;;
76546;SDS011;65390;53.014;8.886;2023-02-28T16:22:50;7.03;;;1.25;;
76546;SDS011;65390;53.014;8.886;2023-02-28T16:25:17;4.88;;;1.67;;
76546;SDS011;65390;53.014;8.886;2023-02-28T16:27:46;2.50;;;1.38;;
76546;SDS011;65390;53.014;8.886;2023-02-28T16:30:23;2.63;;;1.40;;
76546;SDS011;65390;53.014;8.886;2023-02-28T16:32:50;3.05;;;1.55;;
76546;SDS011;65390;53.014;8.886;2023-02-28T16:35:18;1.80;;;1.00;;
76546;SDS011;65390;53.014;8.886;2023-02-28T16:37:44;3.80;;;1.45;;
76546;SDS011;65390;53.014;8.886;2023-02-28T16:40:13;4.28;;;1.58;;
76546;SDS011;65390;53.014;8.886;2023-02-28T16:42:47;3.55;;;1.63;;
76546;SDS011;65390;53.014;8.886;2023-02-28T16:45:18;6.18;;;1.80;;
76546;SDS011;65390;53.014;8.886;2023-02-28T16:47:47;4.25;;;1.67;;
76546;SDS011;65390;53.014;8.886;2023-02-28T16:50:16;8.13;;;2.10;;
76546;SDS011;65390;53.014;8.886;2023-02-28T16:52:43;2.20;;;1.50;;
76546;SDS011;65390;53.014;8.886;2023-02-28T16:55:08;5.05;;;2.50;;
76546;SDS011;65390;53.014;8.886;2023-02-28T16:57:34;4.25;;;1.95;;
76546;SDS011;65390;53.014;8.886;2023-02-28T17:00:00;3.92;;;1.38;;
76546;SDS011;65390;53.014;8.886;2023-02-28T17:02:25;4.38;;;1.85;;
76546;SDS011;65390;53.014;8.886;2023-02-28T17:04:50;3.20;;;1.40;;
76546;SDS011;65390;53.014;8.886;2023-02-28T17:07:16;6.38;;;1.73;;
76546;SDS011;65390;53.014;8.886;2023-02-28T17:09:42;1.90;;;1.52;;
76546;SDS011;65390;53.014;8.886;2023-02-28T17:12:08;1.67;;;1.13;;
76546;SDS011;65390;53.014;8.886;2023-02-28T17:14:34;3.20;;;1.83;;
76546;SDS011;65390;53.014;8.886;2023-02-28T17:17:03;3.17;;;1.58;;
76546;SDS011;65390;53.014;8.886;2023-02-28T17:21:55;3.45;;;1.48;;
76546;SDS011;65390;53.014;8.886;2023-02-28T17:24:20;3.00;;;1.63;;
76546;SDS011;65390;53.014;8.886;2023-02-28T17:26:50;3.63;;;1.50;;
76546;SDS011;65390;53.014;8.886;2023-02-28T17:29:19;4.43;;;1.50;;
76546;SDS011;65390;53.014;8.886;2023-02-28T17:31:45;3.22;;;1.60;;
76546;SDS011;65390;53.014;8.886;2023-02-28T17:34:14;3.53;;;2.00;;
76546;SDS011;65390;53.014;8.886;2023-02-28T17:36:46;2.17;;;1.65;;